createdAt,value
2018-12-11T00:01:34.942Z,95.70
2018-12-11T00:03:39.322Z,95.60
2018-12-11T00:05:44.317Z,95.90
2018-12-11T00:07:48.766Z,96.10
2018-12-11T00:09:53.097Z,96.10
2018-12-11T00:11:58.441Z,96.20
2018-12-11T00:14:03.629Z,96.10
2018-12-11T00:16:16.237Z,96.20
2018-12-11T00:18:20.865Z,95.80
2018-12-11T00:20:27.454Z,96.00
2018-12-11T00:22:32.650Z,96.00
2018-12-11T00:24:42.795Z,96.40
2018-12-11T00:26:47.100Z,96.10
2018-12-11T00:28:51.316Z,95.90
2018-12-11T00:30:55.665Z,95.90
2018-12-11T00:33:07.890Z,96.00
2018-12-11T00:35:14.602Z,96.10
2018-12-11T00:37:28.709Z,96.20
2018-12-11T00:39:40.634Z,96.30
2018-12-11T00:41:51.388Z,96.10
2018-12-11T00:44:05.170Z,96.00
2018-12-11T00:50:56.048Z,96.10
2018-12-11T00:53:08.806Z,96.20
2018-12-11T00:55:21.411Z,96.20
2018-12-11T00:57:35.718Z,96.30
2018-12-11T00:59:49.000Z,96.10
2018-12-11T01:01:59.537Z,96.00
2018-12-11T01:04:08.330Z,96.00
2018-12-11T01:06:14.323Z,96.10
2018-12-11T01:08:26.703Z,95.90
2018-12-11T01:10:40.872Z,95.80
2018-12-11T01:12:52.131Z,95.60
2018-12-11T01:15:00.834Z,95.30
2018-12-11T01:17:05.438Z,95.50
2018-12-11T01:19:09.714Z,95.70
2018-12-11T01:21:14.031Z,95.80
2018-12-11T01:23:19.452Z,96.30
2018-12-11T01:25:23.812Z,96.70
2018-12-11T01:27:28.074Z,96.90
2018-12-11T01:29:32.614Z,96.70
2018-12-11T01:31:47.761Z,96.70
2018-12-11T01:33:52.130Z,96.70
2018-12-11T01:35:56.414Z,96.90
2018-12-11T01:38:00.782Z,96.50
2018-12-11T01:40:05.348Z,96.80
2018-12-11T01:42:10.993Z,96.90
2018-12-11T01:44:15.425Z,96.80
2018-12-11T01:46:19.673Z,96.80
2018-12-11T01:48:23.966Z,96.80
2018-12-11T01:50:29.608Z,96.80
2018-12-11T01:52:33.900Z,96.90
2018-12-11T01:54:38.977Z,96.80
2018-12-11T01:56:43.345Z,96.70
2018-12-11T01:58:47.988Z,96.70
2018-12-11T02:00:53.082Z,96.80
2018-12-11T02:02:57.544Z,96.90
2018-12-11T02:05:02.637Z,97.00
2018-12-11T02:07:07.121Z,97.20
2018-12-11T02:09:12.109Z,97.40
2018-12-11T02:11:18.800Z,97.20
2018-12-11T02:13:23.098Z,97.20
2018-12-11T02:15:28.055Z,97.10
2018-12-11T02:17:32.660Z,97.10
2018-12-11T02:19:36.957Z,97.00
2018-12-11T02:21:42.087Z,96.90
2018-12-11T02:23:47.310Z,96.90
2018-12-11T02:25:51.576Z,97.20
2018-12-11T02:27:55.944Z,97.30
2018-12-11T02:30:01.612Z,97.50
2018-12-11T02:32:05.873Z,97.40
2018-12-11T02:34:10.343Z,97.40
2018-12-11T02:36:14.614Z,97.30
2018-12-11T02:38:18.987Z,97.50
2018-12-11T02:40:23.315Z,97.60
2018-12-11T02:42:27.890Z,97.50
2018-12-11T02:44:32.211Z,97.60
2018-12-11T02:46:36.505Z,97.80
2018-12-11T02:48:40.934Z,97.80
2018-12-11T02:50:45.291Z,97.70
2018-12-11T02:53:02.249Z,97.90
2018-12-11T02:55:08.036Z,98.10
2018-12-11T02:57:12.260Z,98.20
2018-12-11T02:59:16.553Z,98.10
2018-12-11T03:01:21.189Z,98.20
2018-12-11T03:03:25.479Z,98.10
2018-12-11T03:05:29.702Z,97.90
2018-12-11T03:07:35.348Z,97.70
2018-12-11T03:09:40.087Z,97.60
2018-12-11T03:11:46.869Z,97.50
2018-12-11T03:13:51.646Z,97.60
2018-12-11T03:15:55.935Z,97.60
2018-12-11T03:18:00.340Z,97.60
2018-12-11T03:20:05.329Z,97.60
2018-12-11T03:22:10.571Z,97.80
2018-12-11T03:24:14.811Z,98.00
2018-12-11T03:26:19.420Z,98.30
2018-12-11T03:28:24.363Z,98.30
2018-12-11T03:30:28.554Z,98.30
2018-12-11T03:32:34.055Z,98.50
2018-12-11T03:34:38.294Z,98.40
2018-12-11T03:36:42.579Z,98.70
2018-12-11T03:38:47.077Z,98.60
2018-12-11T03:40:51.387Z,98.50
2018-12-11T03:42:55.601Z,98.40
2018-12-11T03:45:00.418Z,98.30
2018-12-11T03:47:04.829Z,98.40
2018-12-11T03:49:09.145Z,98.60
2018-12-11T03:51:13.493Z,98.90
2018-12-11T03:53:18.093Z,98.90
2018-12-11T03:55:24.222Z,98.90
2018-12-11T03:57:28.442Z,98.90
2018-12-11T03:59:35.819Z,99.00
2018-12-11T04:01:40.378Z,98.90
2018-12-11T04:03:44.571Z,98.70
2018-12-11T04:05:48.950Z,98.80
2018-12-11T04:07:53.481Z,98.60
2018-12-11T04:09:57.841Z,98.40
2018-12-11T04:12:02.993Z,98.50
2018-12-11T04:14:07.614Z,98.50
2018-12-11T04:16:12.004Z,98.20
2018-12-11T04:18:16.376Z,98.20
2018-12-11T04:20:20.765Z,98.40
2018-12-11T04:22:25.195Z,98.50
2018-12-11T04:24:29.449Z,98.50
2018-12-11T04:26:34.164Z,98.50
2018-12-11T04:28:38.374Z,98.60
2018-12-11T04:30:42.625Z,98.50
2018-12-11T04:32:46.922Z,98.30
2018-12-11T04:34:51.237Z,98.40
2018-12-11T04:36:55.493Z,98.60
2018-12-11T04:39:00.048Z,98.80
2018-12-11T04:41:04.718Z,98.80
2018-12-11T04:43:09.025Z,99.10
2018-12-11T04:45:15.439Z,99.10
2018-12-11T04:47:19.760Z,99.20
2018-12-11T04:49:24.314Z,99.30
2018-12-11T04:51:28.981Z,99.20
2018-12-11T04:53:33.287Z,99.00
2018-12-11T04:55:37.556Z,98.90
2018-12-11T04:57:42.236Z,98.90
2018-12-11T04:59:46.865Z,99.00
2018-12-11T05:01:51.177Z,98.90
2018-12-11T05:03:56.847Z,99.20
2018-12-11T05:06:01.114Z,99.30
2018-12-11T05:08:09.501Z,99.70
2018-12-11T05:10:15.070Z,99.20
2018-12-11T05:12:19.376Z,99.30
2018-12-11T05:14:24.746Z,99.20
2018-12-11T05:16:29.490Z,99.20
2018-12-11T05:18:35.577Z,99.20
2018-12-11T05:20:39.846Z,99.10
2018-12-11T05:22:44.586Z,99.00
2018-12-11T05:24:48.814Z,98.90
2018-12-11T05:26:53.964Z,99.00
2018-12-11T05:28:58.888Z,99.20
2018-12-11T05:31:03.621Z,99.10
2018-12-11T05:33:09.162Z,99.00
2018-12-11T05:35:13.926Z,99.10
2018-12-11T05:37:18.403Z,99.10
2018-12-11T05:39:22.808Z,98.80
2018-12-11T05:41:27.305Z,98.70
2018-12-11T05:43:31.720Z,98.70
2018-12-11T05:45:36.867Z,98.70
2018-12-11T05:47:43.472Z,98.10
2018-12-11T05:49:47.840Z,98.20
2018-12-11T05:51:52.077Z,98.50
2018-12-11T05:53:56.679Z,98.10
2018-12-11T05:56:01.085Z,98.00
2018-12-11T05:58:05.423Z,97.80
2018-12-11T06:00:15.410Z,97.80
2018-12-11T06:02:19.773Z,97.30
2018-12-11T06:04:24.201Z,97.40
2018-12-11T06:06:28.770Z,97.30
2018-12-11T06:08:33.044Z,97.30
2018-12-11T06:10:38.354Z,96.80
2018-12-11T06:12:46.611Z,96.90
2018-12-11T06:14:50.972Z,97.10
2018-12-11T06:16:55.442Z,97.20
2018-12-11T06:19:01.820Z,97.30
2018-12-11T06:21:07.181Z,96.90
2018-12-11T06:23:11.569Z,97.10
2018-12-11T06:25:15.848Z,97.10
2018-12-11T06:27:20.141Z,97.10
2018-12-11T06:29:24.391Z,97.20
2018-12-11T06:31:36.328Z,97.20
2018-12-11T06:33:40.569Z,97.30
2018-12-11T06:35:47.874Z,97.30
2018-12-11T06:37:53.399Z,97.40
2018-12-11T06:39:59.421Z,97.60
2018-12-11T06:42:04.693Z,97.50
2018-12-11T06:44:10.281Z,97.50
2018-12-11T06:46:21.273Z,97.30
2018-12-11T06:48:25.864Z,97.30
2018-12-11T06:50:30.616Z,97.00
2018-12-11T06:52:35.839Z,97.20
2018-12-11T06:54:40.540Z,97.20
2018-12-11T06:56:44.796Z,97.40
2018-12-11T06:58:49.076Z,97.80
2018-12-11T07:01:04.567Z,97.40
2018-12-11T07:03:08.830Z,97.40
2018-12-11T07:05:13.966Z,97.40
2018-12-11T07:07:18.700Z,97.50
2018-12-11T07:09:23.609Z,97.50
2018-12-11T07:11:28.400Z,97.60
2018-12-11T07:13:32.903Z,97.50
2018-12-11T07:15:37.643Z,97.50
2018-12-11T07:17:42.609Z,97.60
2018-12-11T07:19:48.769Z,97.10
2018-12-11T07:21:53.690Z,97.00
2018-12-11T07:23:58.525Z,96.90
2018-12-11T07:26:03.026Z,97.10
2018-12-11T07:28:08.109Z,97.00
2018-12-11T07:30:18.188Z,97.20
2018-12-11T07:32:34.248Z,97.70
2018-12-11T07:34:38.658Z,97.90
2018-12-11T07:36:43.046Z,97.80
2018-12-11T07:38:47.692Z,98.40
2018-12-11T07:40:53.435Z,98.80
2018-12-11T07:42:58.215Z,98.80
2018-12-11T07:45:03.809Z,98.90
2018-12-11T07:47:08.076Z,99.10
2018-12-11T07:49:13.712Z,99.40
2018-12-11T07:51:19.069Z,99.60
2018-12-11T07:53:25.120Z,99.60
2018-12-11T07:55:29.797Z,99.70
2018-12-11T07:57:34.149Z,99.90
2018-12-11T07:59:38.391Z,99.80
2018-12-11T08:01:51.356Z,99.90
2018-12-11T08:03:57.624Z,99.90
2018-12-11T08:06:02.566Z,99.90
2018-12-11T08:08:11.287Z,99.90
2018-12-11T08:10:16.253Z,99.90
2018-12-11T08:12:21.121Z,99.90
2018-12-11T08:14:25.723Z,99.90
2018-12-11T08:16:31.551Z,99.90
2018-12-11T08:18:40.210Z,99.80
2018-12-11T08:22:57.405Z,99.80
2018-12-11T08:25:04.430Z,99.90
2018-12-11T08:27:13.554Z,99.90
2018-12-11T08:29:20.334Z,99.50
2018-12-11T08:31:24.616Z,99.50
2018-12-11T08:33:29.301Z,99.50
2018-12-11T08:35:33.555Z,99.50
2018-12-11T08:37:38.221Z,99.50
2018-12-11T08:39:43.991Z,99.30
2018-12-11T08:41:49.733Z,99.20
2018-12-11T08:43:58.999Z,99.20
2018-12-11T08:46:05.127Z,98.70
2018-12-11T08:48:09.395Z,98.60
2018-12-11T08:50:15.943Z,98.50
2018-12-11T08:52:22.513Z,98.30
2018-12-11T08:54:26.822Z,98.10
2018-12-11T08:56:31.988Z,97.90
2018-12-11T08:58:36.530Z,97.40
2018-12-11T09:00:42.555Z,97.10
2018-12-11T09:02:49.551Z,97.20
2018-12-11T09:05:06.228Z,97.00
2018-12-11T09:07:17.429Z,96.80
2018-12-11T09:09:24.798Z,97.00
2018-12-11T09:11:38.593Z,96.40
2018-12-11T09:13:49.602Z,96.40
2018-12-11T09:15:57.231Z,96.00
2018-12-11T09:18:01.501Z,95.90
2018-12-11T09:20:06.777Z,95.80
2018-12-11T09:22:11.083Z,96.30
2018-12-11T09:24:23.074Z,96.40
2018-12-11T09:26:32.944Z,96.20
2018-12-11T09:28:43.111Z,96.10
2018-12-11T09:30:48.347Z,96.00
2018-12-11T09:33:00.406Z,96.00
2018-12-11T09:35:07.445Z,96.10
2018-12-11T09:37:14.353Z,95.80
2018-12-11T09:39:23.981Z,95.70
2018-12-11T09:41:33.666Z,96.20
2018-12-11T09:43:44.177Z,96.10
2018-12-11T09:45:48.666Z,95.70
2018-12-11T09:48:01.213Z,96.00
2018-12-11T09:50:07.486Z,95.90
2018-12-11T09:52:13.648Z,95.60
2018-12-11T09:54:25.619Z,95.80
2018-12-11T09:56:35.097Z,96.10
2018-12-11T09:58:54.168Z,96.40
2018-12-11T10:01:02.738Z,96.60
2018-12-11T10:03:10.466Z,96.40
2018-12-11T10:05:17.833Z,96.60
2018-12-11T10:07:22.786Z,96.60
2018-12-11T10:09:27.272Z,96.70
2018-12-11T10:11:34.588Z,97.00
2018-12-11T10:13:41.179Z,97.00
2018-12-11T10:15:51.880Z,96.90
2018-12-11T10:18:00.034Z,97.40
2018-12-11T10:20:09.269Z,97.40
2018-12-11T10:22:14.514Z,97.40
2018-12-11T10:24:21.891Z,96.90
2018-12-11T10:26:26.185Z,97.20
2018-12-11T10:28:32.965Z,97.30
2018-12-11T10:30:43.474Z,97.40
2018-12-11T10:32:53.385Z,97.20
2018-12-11T10:35:02.018Z,97.30
2018-12-11T10:37:06.589Z,97.20
2018-12-11T10:39:10.925Z,97.30
2018-12-11T10:41:16.463Z,97.30
2018-12-11T10:43:20.752Z,97.30
2018-12-11T10:45:30.618Z,97.00
2018-12-11T10:47:42.306Z,96.80
2018-12-11T10:49:46.670Z,96.90
2018-12-11T10:51:51.480Z,97.10
2018-12-11T10:53:57.015Z,97.10
2018-12-11T10:56:01.487Z,96.70
2018-12-11T10:58:07.466Z,96.90
2018-12-11T11:00:16.802Z,97.00
2018-12-11T11:02:24.236Z,97.10
2018-12-11T11:04:32.837Z,96.80
2018-12-11T11:06:37.798Z,97.00
2018-12-11T11:08:43.744Z,96.50
2018-12-11T11:10:48.252Z,96.70
2018-12-11T11:12:53.007Z,96.90
2018-12-11T11:14:57.903Z,96.90
2018-12-11T11:17:15.638Z,96.80
2018-12-11T11:19:21.692Z,96.70
2018-12-11T11:21:26.523Z,96.50
2018-12-11T11:23:32.675Z,96.00
2018-12-11T11:25:37.367Z,96.00
2018-12-11T11:27:44.198Z,95.20
2018-12-11T11:29:49.929Z,95.60
2018-12-11T11:31:55.559Z,95.90
2018-12-11T11:33:59.834Z,95.80
2018-12-11T11:36:07.576Z,95.90
2018-12-11T11:38:12.246Z,95.80
2018-12-11T11:40:17.229Z,95.70
2018-12-11T11:42:27.413Z,96.00
2018-12-11T11:44:59.815Z,95.90
2018-12-11T11:49:39.298Z,94.90
2018-12-11T11:51:47.909Z,95.30
2018-12-11T11:53:53.760Z,95.30
2018-12-11T11:55:58.104Z,95.80
2018-12-11T11:58:03.364Z,95.40
2018-12-11T12:00:15.112Z,95.20
2018-12-11T12:02:20.132Z,95.20
2018-12-11T12:04:25.415Z,95.20
2018-12-11T12:06:33.334Z,95.10
2018-12-11T12:08:41.645Z,95.50
2018-12-11T12:10:50.852Z,96.00
2018-12-11T12:12:56.401Z,96.40
2018-12-11T12:15:03.251Z,96.50
2018-12-11T12:17:08.171Z,96.20
2018-12-11T12:19:13.841Z,96.30
2018-12-11T12:21:23.681Z,96.30
2018-12-11T12:23:28.642Z,96.90
2018-12-11T12:25:45.468Z,97.10
2018-12-11T12:27:51.321Z,96.80
2018-12-11T12:29:55.759Z,96.70
2018-12-11T12:32:03.743Z,96.00
2018-12-11T12:34:07.986Z,96.30
2018-12-11T12:36:15.974Z,95.70
2018-12-11T12:38:21.272Z,95.50
2018-12-11T12:40:25.622Z,95.00
2018-12-11T12:42:32.505Z,94.60
2018-12-11T12:44:38.614Z,94.00
2018-12-11T12:46:44.790Z,93.70
2018-12-11T12:48:49.288Z,93.30
2018-12-11T12:50:56.439Z,93.20
2018-12-11T12:53:02.905Z,92.30
2018-12-11T12:55:10.183Z,91.80
2018-12-11T12:57:16.182Z,91.90
2018-12-11T12:59:22.386Z,91.80
2018-12-11T13:01:27.777Z,91.30
2018-12-11T13:03:33.342Z,91.50
2018-12-11T13:05:38.127Z,91.70
2018-12-11T13:07:45.373Z,91.10
2018-12-11T13:09:52.679Z,90.70
2018-12-11T13:11:58.973Z,90.30
2018-12-11T13:14:06.217Z,91.10
2018-12-11T13:18:21.536Z,91.00
2018-12-11T13:20:26.979Z,91.50
2018-12-11T13:22:34.147Z,91.20
2018-12-11T13:24:39.589Z,91.20
2018-12-11T13:26:43.948Z,91.20
2018-12-11T13:28:55.370Z,90.80
2018-12-11T13:31:01.402Z,91.20
2018-12-11T13:33:08.719Z,91.50
2018-12-11T13:35:15.247Z,91.30
2018-12-11T13:37:20.647Z,91.20
2018-12-11T13:39:27.428Z,91.20
2018-12-11T13:41:34.206Z,90.90
2018-12-11T13:43:42.284Z,90.10
2018-12-11T13:45:46.516Z,90.00
2018-12-11T13:47:52.832Z,90.70
2018-12-11T13:50:02.286Z,90.10
2018-12-11T13:52:08.385Z,90.10
2018-12-11T13:54:15.185Z,90.90
2018-12-11T13:56:19.845Z,90.60
2018-12-11T13:58:25.872Z,90.50
2018-12-11T14:00:31.480Z,91.20
2018-12-11T14:02:35.761Z,90.70
2018-12-11T14:04:45.464Z,90.80
2018-12-11T14:06:49.818Z,90.80
2018-12-11T14:09:00.316Z,90.20
2018-12-11T14:11:06.141Z,90.40
2018-12-11T14:13:17.981Z,90.50
2018-12-11T14:15:32.072Z,90.50
2018-12-11T14:17:46.684Z,90.90
2018-12-11T14:19:50.974Z,90.70
2018-12-11T14:21:55.501Z,91.10
2018-12-11T14:24:01.306Z,91.10
2018-12-11T14:26:06.142Z,91.20
2018-12-11T14:28:17.694Z,91.70
2018-12-11T14:30:24.605Z,91.90
2018-12-11T14:32:31.016Z,92.10
2018-12-11T14:34:35.619Z,92.20
2018-12-11T14:36:45.129Z,92.50
2018-12-11T14:38:51.780Z,92.70
2018-12-11T14:41:02.378Z,92.70
2018-12-11T14:43:15.782Z,92.50
2018-12-11T14:45:25.639Z,92.20
2018-12-11T14:47:34.857Z,92.40
2018-12-11T14:49:42.841Z,92.50
2018-12-11T14:51:53.887Z,92.50
2018-12-11T14:54:08.997Z,92.30
2018-12-11T14:56:24.407Z,92.40
2018-12-11T15:00:50.289Z,92.70
2018-12-11T15:03:09.596Z,92.70
2018-12-11T15:05:17.643Z,92.80
2018-12-11T15:07:30.620Z,93.20
2018-12-11T15:09:42.703Z,93.90
2018-12-11T15:11:49.516Z,93.90
2018-12-11T15:14:00.253Z,93.50
2018-12-11T15:16:08.852Z,93.20
2018-12-11T15:18:20.286Z,93.30
2018-12-11T15:20:30.412Z,93.70
2018-12-11T15:24:52.329Z,94.10
2018-12-11T15:27:00.785Z,94.20
2018-12-11T15:29:13.289Z,94.40
2018-12-11T15:31:26.839Z,94.40
2018-12-11T15:33:45.161Z,94.50
2018-12-11T15:35:57.163Z,94.70
2018-12-11T15:38:09.711Z,95.00
2018-12-11T15:40:17.810Z,94.30
2018-12-11T15:42:31.417Z,94.40
2018-12-11T15:44:40.232Z,94.20
2018-12-11T15:46:56.368Z,94.00
2018-12-11T15:49:03.786Z,94.10
2018-12-11T15:51:13.877Z,94.50
2018-12-11T15:53:21.865Z,94.70
2018-12-11T15:55:36.648Z,94.60
2018-12-11T16:00:06.587Z,94.70
2018-12-11T16:02:17.851Z,94.70
2018-12-11T16:04:31.534Z,94.90
2018-12-11T16:06:42.902Z,95.00
2018-12-11T16:08:56.508Z,95.20
2018-12-11T16:11:07.162Z,95.20
2018-12-11T16:13:13.405Z,95.30
2018-12-11T16:15:22.372Z,95.30
2018-12-11T16:17:34.501Z,95.40
2018-12-11T16:20:20.554Z,95.50
2018-12-11T16:22:34.905Z,95.80
2018-12-11T16:24:49.352Z,95.80
2018-12-11T16:26:59.819Z,96.40
2018-12-11T16:29:09.566Z,96.20
2018-12-11T16:33:43.940Z,96.40
2018-12-11T16:35:50.968Z,96.60
2018-12-11T16:37:59.201Z,96.60
2018-12-11T16:40:08.279Z,97.00
2018-12-11T16:42:21.106Z,96.60
2018-12-11T16:44:34.728Z,96.80
2018-12-11T16:46:46.687Z,96.90
2018-12-11T16:48:52.898Z,97.10
2018-12-11T16:51:00.360Z,97.20
2018-12-11T16:53:10.646Z,97.30
2018-12-11T16:55:18.493Z,97.30
2018-12-11T16:57:30.674Z,97.30
2018-12-11T16:59:38.357Z,97.20
2018-12-11T17:02:03.706Z,97.30
2018-12-11T17:04:15.302Z,97.30
2018-12-11T17:06:22.640Z,97.30
2018-12-11T17:08:35.009Z,97.30
2018-12-11T17:10:54.786Z,97.30
2018-12-11T17:13:01.463Z,97.40
2018-12-11T17:15:15.632Z,97.50
2018-12-11T17:17:27.053Z,97.50
2018-12-11T17:19:35.742Z,97.50
2018-12-11T17:21:46.924Z,97.60
2018-12-11T17:23:59.609Z,97.60
2018-12-11T17:26:06.580Z,97.70
2018-12-11T17:28:19.762Z,98.00
2018-12-11T17:30:28.007Z,98.00
2018-12-11T17:32:41.761Z,98.00
2018-12-11T17:34:54.871Z,97.80
2018-12-11T17:37:02.298Z,97.40
2018-12-11T17:39:11.347Z,97.80
2018-12-11T17:41:19.596Z,97.60
2018-12-11T17:43:26.581Z,97.50
2018-12-11T17:45:36.627Z,97.50
2018-12-11T17:47:52.329Z,97.50
2018-12-11T17:50:00.016Z,97.40
2018-12-11T17:52:09.064Z,97.50
2018-12-11T17:54:21.601Z,97.40
2018-12-11T17:56:34.162Z,97.40
2018-12-11T17:58:43.133Z,97.30
2018-12-11T18:00:54.358Z,97.50
2018-12-11T18:03:00.425Z,97.30
2018-12-11T18:05:06.076Z,97.50
2018-12-11T18:07:12.630Z,97.20
2018-12-11T18:09:18.664Z,97.10
2018-12-11T18:11:30.797Z,97.00
2018-12-11T18:13:36.684Z,96.90
2018-12-11T18:15:43.295Z,96.70
2018-12-11T18:17:49.212Z,96.50
2018-12-11T18:19:54.796Z,96.50
2018-12-11T18:22:01.262Z,96.60
2018-12-11T18:24:10.593Z,96.50
2018-12-11T18:26:19.545Z,96.40
2018-12-11T18:28:23.986Z,96.20
2018-12-11T18:30:31.157Z,96.20
2018-12-11T18:32:35.751Z,96.30
2018-12-11T18:34:45.298Z,96.40
2018-12-11T18:36:51.169Z,96.20
2018-12-11T18:38:55.826Z,95.90
2018-12-11T18:41:04.624Z,95.70
2018-12-11T18:43:10.412Z,95.70
2018-12-11T18:45:18.133Z,95.80
2018-12-11T18:47:22.437Z,95.80
2018-12-11T18:49:29.870Z,95.30
2018-12-11T18:51:44.768Z,94.90
2018-12-11T18:53:51.243Z,95.00
2018-12-11T18:55:55.465Z,94.90
2018-12-11T18:57:59.713Z,95.30
2018-12-11T19:00:03.996Z,95.40
2018-12-11T19:02:13.242Z,95.10
2018-12-11T19:04:19.533Z,95.00
2018-12-11T19:06:24.345Z,95.10
2018-12-11T19:08:32.117Z,95.00
2018-12-11T19:10:40.592Z,95.00
2018-12-11T19:12:46.885Z,94.70
2018-12-11T19:14:51.860Z,94.50
2018-12-11T19:16:58.887Z,94.40
2018-12-11T19:19:03.189Z,94.40
2018-12-11T19:21:08.096Z,94.30
2018-12-11T19:23:22.634Z,94.50
2018-12-11T19:25:26.849Z,94.60
2018-12-11T19:27:31.773Z,94.70
2018-12-11T19:29:38.010Z,94.40
2018-12-11T19:31:42.282Z,94.10
2018-12-11T19:33:46.557Z,94.20
2018-12-11T19:35:52.470Z,94.20
2018-12-11T19:37:58.254Z,94.20
2018-12-11T19:40:03.460Z,94.40
2018-12-11T19:42:09.393Z,94.20
2018-12-11T19:44:16.726Z,93.90
2018-12-11T19:46:24.976Z,93.70
2018-12-11T19:48:31.969Z,93.80
2018-12-11T19:50:39.207Z,93.70
2018-12-11T19:52:43.714Z,94.00
2018-12-11T19:54:50.754Z,93.70
2018-12-11T19:56:57.493Z,93.80
2018-12-11T19:59:03.870Z,93.70
2018-12-11T20:01:11.318Z,93.30
2018-12-11T20:03:16.172Z,93.70
2018-12-11T20:05:22.092Z,94.00
2018-12-11T20:07:28.385Z,94.10
2018-12-11T20:09:32.721Z,94.10
2018-12-11T20:11:38.277Z,93.90
2018-12-11T20:13:46.113Z,93.80
2018-12-11T20:15:56.616Z,93.90
2018-12-11T20:18:03.105Z,93.90
2018-12-11T20:20:08.506Z,93.90
2018-12-11T20:22:14.495Z,93.90
2018-12-11T20:24:18.785Z,94.10
2018-12-11T20:26:23.054Z,93.70
2018-12-11T20:28:29.551Z,93.80
2018-12-11T20:30:35.798Z,93.90
2018-12-11T20:32:41.941Z,93.70
2018-12-11T20:34:47.326Z,93.50
2018-12-11T20:36:54.560Z,93.80
2018-12-11T20:39:04.349Z,94.00
2018-12-11T20:41:08.818Z,94.10
2018-12-11T20:43:13.432Z,94.20
2018-12-11T20:45:19.220Z,94.40
2018-12-11T20:47:23.674Z,94.60
2018-12-11T20:49:29.027Z,94.80
2018-12-11T20:51:34.240Z,95.00
2018-12-11T20:53:39.224Z,95.10
2018-12-11T20:55:44.329Z,95.20
2018-12-11T20:57:52.405Z,95.30
2018-12-11T20:59:57.847Z,95.40
2018-12-11T21:02:02.872Z,95.60
2018-12-11T21:04:07.472Z,95.80
2018-12-11T21:06:18.538Z,95.70
2018-12-11T21:08:26.509Z,95.60
2018-12-11T21:10:31.916Z,95.60
2018-12-11T21:12:37.248Z,95.50
2018-12-11T21:14:42.247Z,95.40
2018-12-11T21:16:48.081Z,95.30
2018-12-11T21:18:54.314Z,95.20
2018-12-11T21:20:58.641Z,95.30
2018-12-11T21:23:03.814Z,95.10
2018-12-11T21:25:08.674Z,94.90
2018-12-11T21:27:15.675Z,94.80
2018-12-11T21:29:25.659Z,94.50
2018-12-11T21:31:35.735Z,94.70
2018-12-11T21:33:40.892Z,94.90
2018-12-11T21:35:48.451Z,94.80
2018-12-11T21:37:55.816Z,94.70
2018-12-11T21:40:00.719Z,94.70
2018-12-11T21:42:07.862Z,94.80
2018-12-11T21:44:16.670Z,94.90
2018-12-11T21:46:23.365Z,95.00
2018-12-11T21:48:31.243Z,95.00
2018-12-11T21:50:35.549Z,94.90
2018-12-11T21:52:41.068Z,95.00
2018-12-11T21:54:46.578Z,95.00
2018-12-11T21:56:53.210Z,95.00
2018-12-11T21:58:59.910Z,95.00
2018-12-11T22:01:08.311Z,95.00
2018-12-11T22:03:14.891Z,95.00
2018-12-11T22:05:19.997Z,95.00
2018-12-11T22:07:32.048Z,95.10
2018-12-11T22:09:36.488Z,95.10
2018-12-11T22:11:41.476Z,95.20
2018-12-11T22:13:47.834Z,95.20
2018-12-11T22:15:53.090Z,95.30
2018-12-11T22:17:58.472Z,95.30
2018-12-11T22:20:03.850Z,95.30
2018-12-11T22:22:09.373Z,95.30
2018-12-11T22:24:14.026Z,95.10
2018-12-11T22:26:20.686Z,95.30
2018-12-11T22:28:27.872Z,95.40
2018-12-11T22:30:36.426Z,95.30
2018-12-11T22:32:45.993Z,95.30
2018-12-11T22:34:50.715Z,95.20
2018-12-11T22:36:55.927Z,95.30
2018-12-11T22:39:00.837Z,95.30
2018-12-11T22:41:10.241Z,95.20
2018-12-11T22:43:14.493Z,95.10
2018-12-11T22:45:22.814Z,95.10
2018-12-11T22:47:27.333Z,95.10
2018-12-11T22:49:31.711Z,94.90
2018-12-11T22:51:36.024Z,95.20
2018-12-11T22:53:40.336Z,95.10
2018-12-11T22:55:45.264Z,95.20
2018-12-11T22:57:49.521Z,95.20
2018-12-11T22:59:54.133Z,95.10
2018-12-11T23:01:59.349Z,95.10
2018-12-11T23:04:03.754Z,95.30
2018-12-11T23:06:08.165Z,95.20
2018-12-11T23:08:12.738Z,95.20
2018-12-11T23:10:17.069Z,95.30
2018-12-11T23:12:22.505Z,95.30
2018-12-11T23:14:30.077Z,95.30
2018-12-11T23:16:35.517Z,95.30
2018-12-11T23:18:40.348Z,95.10
2018-12-11T23:20:45.591Z,95.00
2018-12-11T23:22:50.836Z,95.10
2018-12-11T23:24:55.337Z,95.10
2018-12-11T23:27:00.371Z,95.20
2018-12-11T23:29:04.646Z,95.20
2018-12-11T23:31:09.943Z,95.10
2018-12-11T23:33:16.021Z,94.70
2018-12-11T23:35:21.083Z,94.70
2018-12-11T23:37:25.763Z,95.00
2018-12-11T23:39:30.104Z,95.00
2018-12-11T23:41:34.375Z,95.20
2018-12-11T23:43:38.628Z,95.60
2018-12-11T23:45:44.244Z,95.60
2018-12-11T23:47:48.480Z,95.80
2018-12-11T23:49:52.733Z,95.80
2018-12-11T23:51:57.889Z,95.80
2018-12-11T23:54:04.036Z,95.90
2018-12-11T23:56:08.943Z,95.90
2018-12-11T23:58:16.376Z,95.70
